Eikamaru No.2 — JD3056 — position and weather

sailwx.info

Track history (hours):
 
Tides and Currents Weather Stations Pressure Air Temp Water Temp Dewpoint Dewpoint Depression Visibility Wind Speed Wind Dir Waves Ship Positions

Eikamaru No.2

Last reported at 2014-Aug-28 02:34 UTC. Time now 2014-Aug-28 07:28 UTC.
Position N 34°02' E 132°38'.

Length 60 m; draft 3.3 m.

Type: Tanker. MMSI: 431001342.

Date/timePositionNaut miles runAvg speedWind from/ knotsBaromVisibWave heightAir tempDewpointWater temp
2014-Aug-28 02:34N 34°02' E 132°38'  
2014-Aug-21 16:08N 34°07' E 132°40'811.8
2014-Aug-21 15:27N 33°60' E 132°35'1411.3
2014-Aug-21 14:10N 33°50' E 132°23'18 0.7
2014-Aug-20 13:05N 34°02' E 132°38'5 0.1
2014-Aug-18 12:05N 34°07' E 132°40'911.7
2014-Aug-18 11:22N 34°02' E 132°32'1012.6
2014-Aug-18 10:34N 34°08' E 132°22'9 9.2
2014-Aug-18 09:33N 34°14' E 132°14'0 0.0
2014-Aug-18 08:33N 34°14' E 132°14'0 0.0
2014-Aug-18 07:34N 34°14' E 132°14'0 0.0
2014-Aug-18 06:34N 34°14' E 132°14'0 0.0
2014-Aug-18 05:33N 34°14' E 132°14'0 0.3
2014-Aug-18 04:33N 34°14' E 132°14'6 4.2
2014-Aug-18 03:09N 34°10' E 132°19'  
Track history (hours):
 
Tides and Currents Weather Stations Pressure Air Temp Water Temp Dewpoint Dewpoint Depression Visibility Wind Speed Wind Dir Waves Ship Positions

Eikamaru No.2

Last reported at 2014-Aug-28 02:34 UTC. Time now 2014-Aug-28 07:28 UTC.
Position N 34°02' E 132°38'.

Length 60 m; draft 3.3 m.

Type: Tanker. MMSI: 431001342.

Date/timePositionNaut miles runAvg speedWind from/ knotsBaromVisibWave heightAir tempDewpointWater temp
2014-Aug-28 02:34N 34°02' E 132°38'  
2014-Aug-21 16:08N 34°07' E 132°40'811.8
2014-Aug-21 15:27N 33°60' E 132°35'1411.3
2014-Aug-21 14:10N 33°50' E 132°23'18 0.7
2014-Aug-20 13:05N 34°02' E 132°38'5 0.1
2014-Aug-18 12:05N 34°07' E 132°40'911.7
2014-Aug-18 11:22N 34°02' E 132°32'1012.6
2014-Aug-18 10:34N 34°08' E 132°22'9 9.2
2014-Aug-18 09:33N 34°14' E 132°14'0 0.0
2014-Aug-18 08:33N 34°14' E 132°14'0 0.0
2014-Aug-18 07:34N 34°14' E 132°14'0 0.0
2014-Aug-18 06:34N 34°14' E 132°14'0 0.0
2014-Aug-18 05:33N 34°14' E 132°14'0 0.3
2014-Aug-18 04:33N 34°14' E 132°14'6 4.2
2014-Aug-18 03:09N 34°10' E 132°19'  

Dump ship's entire track history